sensor_id;sensor_type;location;lat;lon;timestamp;P1;durP1;ratioP1;P2;durP2;ratioP2
66089;SDS011;53113;45.602;11.904;2023-02-01T00:02:01;73.50;;;45.80;;
66089;SDS011;53113;45.602;11.904;2023-02-01T00:04:27;77.50;;;46.00;;
66089;SDS011;53113;45.602;11.904;2023-02-01T00:06:53;78.60;;;47.70;;
66089;SDS011;53113;45.602;11.904;2023-02-01T00:09:19;80.30;;;49.10;;
66089;SDS011;53113;45.602;11.904;2023-02-01T00:11:44;80.60;;;47.70;;
66089;SDS011;53113;45.602;11.904;2023-02-01T00:14:10;77.30;;;46.90;;
66089;SDS011;53113;45.602;11.904;2023-02-01T00:16:38;78.50;;;47.80;;
66089;SDS011;53113;45.602;11.904;2023-02-01T00:19:09;76.20;;;45.00;;
66089;SDS011;53113;45.602;11.904;2023-02-01T00:21:37;78.90;;;47.20;;
66089;SDS011;53113;45.602;11.904;2023-02-01T00:24:03;87.40;;;50.90;;
66089;SDS011;53113;45.602;11.904;2023-02-01T00:26:36;92.20;;;52.30;;
66089;SDS011;53113;45.602;11.904;2023-02-01T00:29:03;76.80;;;46.50;;
66089;SDS011;53113;45.602;11.904;2023-02-01T00:31:31;85.80;;;48.30;;
66089;SDS011;53113;45.602;11.904;2023-02-01T00:33:57;76.00;;;45.50;;
66089;SDS011;53113;45.602;11.904;2023-02-01T00:36:24;65.40;;;41.70;;
66089;SDS011;53113;45.602;11.904;2023-02-01T00:38:49;77.90;;;45.90;;
66089;SDS011;53113;45.602;11.904;2023-02-01T00:41:18;74.10;;;46.70;;
66089;SDS011;53113;45.602;11.904;2023-02-01T00:43:45;75.20;;;45.20;;
66089;SDS011;53113;45.602;11.904;2023-02-01T00:46:13;77.80;;;45.20;;
66089;SDS011;53113;45.602;11.904;2023-02-01T00:48:41;73.10;;;46.20;;
66089;SDS011;53113;45.602;11.904;2023-02-01T00:51:07;79.20;;;46.70;;
66089;SDS011;53113;45.602;11.904;2023-02-01T00:53:35;79.30;;;45.50;;
66089;SDS011;53113;45.602;11.904;2023-02-01T00:56:02;68.50;;;42.30;;
66089;SDS011;53113;45.602;11.904;2023-02-01T00:58:29;72.10;;;43.30;;
66089;SDS011;53113;45.602;11.904;2023-02-01T01:03:44;77.70;;;44.30;;
66089;SDS011;53113;45.602;11.904;2023-02-01T01:06:13;72.70;;;43.90;;
66089;SDS011;53113;45.602;11.904;2023-02-01T01:08:41;66.90;;;42.60;;
66089;SDS011;53113;45.602;11.904;2023-02-01T01:11:08;75.50;;;46.10;;
66089;SDS011;53113;45.602;11.904;2023-02-01T01:13:36;73.50;;;45.60;;
66089;SDS011;53113;45.602;11.904;2023-02-01T01:16:03;68.60;;;42.60;;
66089;SDS011;53113;45.602;11.904;2023-02-01T01:18:31;75.40;;;45.50;;
66089;SDS011;53113;45.602;11.904;2023-02-01T01:20:58;95.00;;;52.30;;
66089;SDS011;53113;45.602;11.904;2023-02-01T01:23:24;89.90;;;47.70;;
66089;SDS011;53113;45.602;11.904;2023-02-01T01:25:50;84.60;;;48.20;;
66089;SDS011;53113;45.602;11.904;2023-02-01T01:28:16;70.60;;;40.10;;
66089;SDS011;53113;45.602;11.904;2023-02-01T01:30:42;68.40;;;41.00;;
66089;SDS011;53113;45.602;11.904;2023-02-01T01:33:08;63.40;;;38.10;;
66089;SDS011;53113;45.602;11.904;2023-02-01T01:35:34;60.40;;;35.10;;
66089;SDS011;53113;45.602;11.904;2023-02-01T01:37:59;60.50;;;36.80;;
66089;SDS011;53113;45.602;11.904;2023-02-01T01:40:26;67.80;;;38.00;;
66089;SDS011;53113;45.602;11.904;2023-02-01T01:42:53;68.20;;;40.00;;
66089;SDS011;53113;45.602;11.904;2023-02-01T01:47:56;66.50;;;39.40;;
66089;SDS011;53113;45.602;11.904;2023-02-01T01:50:27;62.30;;;39.00;;
66089;SDS011;53113;45.602;11.904;2023-02-01T01:52:56;67.40;;;40.00;;
66089;SDS011;53113;45.602;11.904;2023-02-01T01:55:27;68.60;;;40.00;;
66089;SDS011;53113;45.602;11.904;2023-02-01T01:57:59;67.90;;;40.60;;
66089;SDS011;53113;45.602;11.904;2023-02-01T02:00:28;67.80;;;40.90;;
66089;SDS011;53113;45.602;11.904;2023-02-01T02:02:58;71.30;;;39.60;;
66089;SDS011;53113;45.602;11.904;2023-02-01T02:05:29;63.80;;;38.30;;
66089;SDS011;53113;45.602;11.904;2023-02-01T02:07:57;68.30;;;40.40;;
66089;SDS011;53113;45.602;11.904;2023-02-01T02:10:28;66.80;;;39.00;;
66089;SDS011;53113;45.602;11.904;2023-02-01T02:13:14;63.00;;;37.50;;
66089;SDS011;53113;45.602;11.904;2023-02-01T02:15:43;62.40;;;38.00;;
66089;SDS011;53113;45.602;11.904;2023-02-01T02:18:19;64.30;;;36.20;;
66089;SDS011;53113;45.602;11.904;2023-02-01T02:21:11;71.90;;;39.10;;
66089;SDS011;53113;45.602;11.904;2023-02-01T02:29:46;72.10;;;38.90;;
66089;SDS011;53113;45.602;11.904;2023-02-01T02:38:12;53.20;;;31.60;;
66089;SDS011;53113;45.602;11.904;2023-02-01T02:40:53;50.20;;;31.10;;
66089;SDS011;53113;45.602;11.904;2023-02-01T02:49:34;53.20;;;29.90;;
66089;SDS011;53113;45.602;11.904;2023-02-01T02:52:12;63.30;;;33.70;;
66089;SDS011;53113;45.602;11.904;2023-02-01T02:55:12;49.80;;;29.00;;
66089;SDS011;53113;45.602;11.904;2023-02-01T02:57:39;50.70;;;29.80;;
66089;SDS011;53113;45.602;11.904;2023-02-01T03:00:28;48.60;;;28.90;;
66089;SDS011;53113;45.602;11.904;2023-02-01T03:03:16;50.40;;;28.60;;
66089;SDS011;53113;45.602;11.904;2023-02-01T03:06:01;49.10;;;29.00;;
66089;SDS011;53113;45.602;11.904;2023-02-01T03:08:27;50.10;;;27.50;;
66089;SDS011;53113;45.602;11.904;2023-02-01T03:11:08;50.00;;;28.20;;
66089;SDS011;53113;45.602;11.904;2023-02-01T03:16:22;50.40;;;29.40;;
66089;SDS011;53113;45.602;11.904;2023-02-01T03:21:33;50.50;;;29.50;;
66089;SDS011;53113;45.602;11.904;2023-02-01T03:24:04;52.20;;;30.00;;
66089;SDS011;53113;45.602;11.904;2023-02-01T03:26:36;51.50;;;29.80;;
66089;SDS011;53113;45.602;11.904;2023-02-01T03:29:12;51.90;;;29.10;;
66089;SDS011;53113;45.602;11.904;2023-02-01T03:31:44;52.70;;;30.10;;
66089;SDS011;53113;45.602;11.904;2023-02-01T03:34:11;54.10;;;29.60;;
66089;SDS011;53113;45.602;11.904;2023-02-01T03:36:43;61.00;;;32.90;;
66089;SDS011;53113;45.602;11.904;2023-02-01T03:39:16;67.30;;;36.20;;
66089;SDS011;53113;45.602;11.904;2023-02-01T03:41:57;60.40;;;34.70;;
66089;SDS011;53113;45.602;11.904;2023-02-01T03:47:02;49.00;;;27.30;;
66089;SDS011;53113;45.602;11.904;2023-02-01T03:52:03;42.00;;;25.00;;
66089;SDS011;53113;45.602;11.904;2023-02-01T03:54:33;44.70;;;25.80;;
66089;SDS011;53113;45.602;11.904;2023-02-01T03:57:01;48.20;;;27.20;;
66089;SDS011;53113;45.602;11.904;2023-02-01T03:59:32;45.50;;;27.80;;
66089;SDS011;53113;45.602;11.904;2023-02-01T04:01:58;45.40;;;26.40;;
66089;SDS011;53113;45.602;11.904;2023-02-01T04:04:23;44.00;;;27.50;;
66089;SDS011;53113;45.602;11.904;2023-02-01T04:06:49;44.80;;;27.40;;
66089;SDS011;53113;45.602;11.904;2023-02-01T04:09:15;47.80;;;27.10;;
66089;SDS011;53113;45.602;11.904;2023-02-01T04:11:42;46.70;;;28.00;;
66089;SDS011;53113;45.602;11.904;2023-02-01T04:14:08;46.10;;;27.40;;
66089;SDS011;53113;45.602;11.904;2023-02-01T04:16:34;47.70;;;27.30;;
66089;SDS011;53113;45.602;11.904;2023-02-01T04:19:01;51.80;;;28.60;;
66089;SDS011;53113;45.602;11.904;2023-02-01T04:21:27;49.40;;;29.00;;
66089;SDS011;53113;45.602;11.904;2023-02-01T04:23:53;47.00;;;28.50;;
66089;SDS011;53113;45.602;11.904;2023-02-01T04:26:20;45.60;;;27.30;;
66089;SDS011;53113;45.602;11.904;2023-02-01T04:28:46;47.40;;;27.20;;
66089;SDS011;53113;45.602;11.904;2023-02-01T04:31:13;45.30;;;27.60;;
66089;SDS011;53113;45.602;11.904;2023-02-01T04:33:42;50.20;;;28.30;;
66089;SDS011;53113;45.602;11.904;2023-02-01T04:36:08;47.60;;;28.30;;
66089;SDS011;53113;45.602;11.904;2023-02-01T04:38:35;47.60;;;27.70;;
66089;SDS011;53113;45.602;11.904;2023-02-01T04:41:01;47.20;;;28.10;;
66089;SDS011;53113;45.602;11.904;2023-02-01T04:43:27;52.40;;;29.90;;
66089;SDS011;53113;45.602;11.904;2023-02-01T04:45:52;55.60;;;31.60;;
66089;SDS011;53113;45.602;11.904;2023-02-01T04:48:19;59.50;;;32.80;;
66089;SDS011;53113;45.602;11.904;2023-02-01T04:50:46;53.90;;;30.80;;
66089;SDS011;53113;45.602;11.904;2023-02-01T04:53:14;54.10;;;28.70;;
66089;SDS011;53113;45.602;11.904;2023-02-01T04:55:40;50.00;;;27.10;;
66089;SDS011;53113;45.602;11.904;2023-02-01T04:58:07;45.30;;;26.90;;
66089;SDS011;53113;45.602;11.904;2023-02-01T05:00:33;42.90;;;23.90;;
66089;SDS011;53113;45.602;11.904;2023-02-01T05:02:59;45.50;;;26.10;;
66089;SDS011;53113;45.602;11.904;2023-02-01T05:05:26;46.40;;;27.00;;
66089;SDS011;53113;45.602;11.904;2023-02-01T05:07:52;48.30;;;28.30;;
66089;SDS011;53113;45.602;11.904;2023-02-01T05:10:18;45.00;;;27.30;;
66089;SDS011;53113;45.602;11.904;2023-02-01T05:12:44;49.90;;;27.60;;
66089;SDS011;53113;45.602;11.904;2023-02-01T05:15:29;44.10;;;26.90;;
66089;SDS011;53113;45.602;11.904;2023-02-01T05:17:56;52.20;;;29.10;;
66089;SDS011;53113;45.602;11.904;2023-02-01T05:20:22;47.30;;;27.20;;
66089;SDS011;53113;45.602;11.904;2023-02-01T05:22:48;49.20;;;28.90;;
66089;SDS011;53113;45.602;11.904;2023-02-01T05:25:14;50.80;;;28.10;;
66089;SDS011;53113;45.602;11.904;2023-02-01T05:27:40;49.50;;;28.70;;
66089;SDS011;53113;45.602;11.904;2023-02-01T05:30:06;47.20;;;27.70;;
66089;SDS011;53113;45.602;11.904;2023-02-01T05:32:32;46.00;;;28.00;;
66089;SDS011;53113;45.602;11.904;2023-02-01T05:34:58;48.70;;;27.90;;
66089;SDS011;53113;45.602;11.904;2023-02-01T05:37:24;64.50;;;34.60;;
66089;SDS011;53113;45.602;11.904;2023-02-01T05:39:49;63.80;;;33.30;;
66089;SDS011;53113;45.602;11.904;2023-02-01T05:42:15;57.30;;;30.50;;
66089;SDS011;53113;45.602;11.904;2023-02-01T05:44:41;54.60;;;30.10;;
66089;SDS011;53113;45.602;11.904;2023-02-01T05:47:07;43.40;;;26.30;;
66089;SDS011;53113;45.602;11.904;2023-02-01T05:49:33;50.30;;;28.30;;
66089;SDS011;53113;45.602;11.904;2023-02-01T05:51:59;43.70;;;25.80;;
66089;SDS011;53113;45.602;11.904;2023-02-01T05:54:25;45.10;;;26.80;;
66089;SDS011;53113;45.602;11.904;2023-02-01T05:56:51;42.10;;;25.30;;
66089;SDS011;53113;45.602;11.904;2023-02-01T05:59:16;44.70;;;26.10;;
66089;SDS011;53113;45.602;11.904;2023-02-01T06:01:42;40.40;;;24.30;;
66089;SDS011;53113;45.602;11.904;2023-02-01T06:04:08;41.00;;;25.10;;
66089;SDS011;53113;45.602;11.904;2023-02-01T06:06:34;44.90;;;26.10;;
66089;SDS011;53113;45.602;11.904;2023-02-01T06:09:00;45.10;;;26.50;;
66089;SDS011;53113;45.602;11.904;2023-02-01T06:11:26;43.00;;;24.60;;
66089;SDS011;53113;45.602;11.904;2023-02-01T06:13:53;43.80;;;24.50;;
66089;SDS011;53113;45.602;11.904;2023-02-01T06:16:21;39.40;;;23.10;;
66089;SDS011;53113;45.602;11.904;2023-02-01T06:18:47;43.00;;;24.10;;
66089;SDS011;53113;45.602;11.904;2023-02-01T06:21:14;44.70;;;25.80;;
66089;SDS011;53113;45.602;11.904;2023-02-01T06:23:52;36.20;;;22.60;;
66089;SDS011;53113;45.602;11.904;2023-02-01T06:26:19;41.70;;;24.10;;
66089;SDS011;53113;45.602;11.904;2023-02-01T06:28:45;42.30;;;24.30;;
66089;SDS011;53113;45.602;11.904;2023-02-01T06:31:10;48.20;;;25.60;;
66089;SDS011;53113;45.602;11.904;2023-02-01T06:33:37;48.60;;;28.10;;
66089;SDS011;53113;45.602;11.904;2023-02-01T06:36:04;47.10;;;27.40;;
66089;SDS011;53113;45.602;11.904;2023-02-01T06:38:31;43.40;;;25.30;;
66089;SDS011;53113;45.602;11.904;2023-02-01T06:41:01;38.40;;;21.90;;
66089;SDS011;53113;45.602;11.904;2023-02-01T06:43:28;40.10;;;23.30;;
66089;SDS011;53113;45.602;11.904;2023-02-01T06:45:58;35.80;;;21.40;;
66089;SDS011;53113;45.602;11.904;2023-02-01T06:48:26;34.90;;;20.50;;
66089;SDS011;53113;45.602;11.904;2023-02-01T06:50:52;33.40;;;20.40;;
66089;SDS011;53113;45.602;11.904;2023-02-01T06:53:17;34.90;;;21.20;;
66089;SDS011;53113;45.602;11.904;2023-02-01T06:55:51;36.70;;;22.40;;
66089;SDS011;53113;45.602;11.904;2023-02-01T06:58:18;40.70;;;23.40;;
66089;SDS011;53113;45.602;11.904;2023-02-01T07:00:44;37.80;;;22.50;;
66089;SDS011;53113;45.602;11.904;2023-02-01T07:03:10;41.10;;;23.30;;
66089;SDS011;53113;45.602;11.904;2023-02-01T07:05:35;43.50;;;25.10;;
66089;SDS011;53113;45.602;11.904;2023-02-01T07:08:01;43.00;;;23.90;;
66089;SDS011;53113;45.602;11.904;2023-02-01T07:10:27;38.70;;;25.00;;
66089;SDS011;53113;45.602;11.904;2023-02-01T07:12:55;47.20;;;28.00;;
66089;SDS011;53113;45.602;11.904;2023-02-01T07:15:23;45.10;;;27.50;;
66089;SDS011;53113;45.602;11.904;2023-02-01T07:17:49;46.80;;;28.20;;
66089;SDS011;53113;45.602;11.904;2023-02-01T07:20:15;46.00;;;24.80;;
66089;SDS011;53113;45.602;11.904;2023-02-01T07:22:41;40.60;;;24.70;;
66089;SDS011;53113;45.602;11.904;2023-02-01T07:25:07;40.80;;;24.30;;
66089;SDS011;53113;45.602;11.904;2023-02-01T07:27:36;39.90;;;23.60;;
66089;SDS011;53113;45.602;11.904;2023-02-01T07:30:03;37.30;;;23.20;;
66089;SDS011;53113;45.602;11.904;2023-02-01T07:32:30;35.10;;;21.70;;
66089;SDS011;53113;45.602;11.904;2023-02-01T07:34:56;43.20;;;22.50;;
66089;SDS011;53113;45.602;11.904;2023-02-01T07:37:22;39.70;;;23.20;;
66089;SDS011;53113;45.602;11.904;2023-02-01T07:39:49;43.80;;;23.30;;
66089;SDS011;53113;45.602;11.904;2023-02-01T07:42:18;39.00;;;22.70;;
66089;SDS011;53113;45.602;11.904;2023-02-01T07:44:44;36.10;;;21.70;;
66089;SDS011;53113;45.602;11.904;2023-02-01T07:47:10;43.90;;;23.60;;
66089;SDS011;53113;45.602;11.904;2023-02-01T07:49:35;37.00;;;21.80;;
66089;SDS011;53113;45.602;11.904;2023-02-01T07:52:01;36.30;;;22.50;;
66089;SDS011;53113;45.602;11.904;2023-02-01T07:54:27;43.10;;;27.50;;
66089;SDS011;53113;45.602;11.904;2023-02-01T07:56:53;43.30;;;25.40;;
66089;SDS011;53113;45.602;11.904;2023-02-01T07:59:18;44.60;;;27.60;;
66089;SDS011;53113;45.602;11.904;2023-02-01T08:01:45;38.40;;;23.20;;
66089;SDS011;53113;45.602;11.904;2023-02-01T08:04:11;39.40;;;23.10;;
66089;SDS011;53113;45.602;11.904;2023-02-01T08:06:38;39.80;;;26.70;;
66089;SDS011;53113;45.602;11.904;2023-02-01T08:09:04;42.50;;;25.10;;
66089;SDS011;53113;45.602;11.904;2023-02-01T08:11:31;38.30;;;23.00;;
66089;SDS011;53113;45.602;11.904;2023-02-01T08:13:57;34.90;;;22.80;;
66089;SDS011;53113;45.602;11.904;2023-02-01T08:16:24;41.80;;;25.10;;
66089;SDS011;53113;45.602;11.904;2023-02-01T08:18:51;51.50;;;29.50;;
66089;SDS011;53113;45.602;11.904;2023-02-01T08:21:22;39.20;;;23.30;;
66089;SDS011;53113;45.602;11.904;2023-02-01T08:23:49;53.80;;;36.30;;
66089;SDS011;53113;45.602;11.904;2023-02-01T08:26:19;49.90;;;31.30;;
66089;SDS011;53113;45.602;11.904;2023-02-01T08:28:48;43.80;;;27.70;;
66089;SDS011;53113;45.602;11.904;2023-02-01T08:31:17;38.90;;;23.70;;
66089;SDS011;53113;45.602;11.904;2023-02-01T08:33:48;36.30;;;22.20;;
66089;SDS011;53113;45.602;11.904;2023-02-01T08:36:16;38.70;;;21.30;;
66089;SDS011;53113;45.602;11.904;2023-02-01T08:38:42;33.50;;;22.30;;
66089;SDS011;53113;45.602;11.904;2023-02-01T08:41:09;31.80;;;20.50;;
66089;SDS011;53113;45.602;11.904;2023-02-01T08:43:37;35.80;;;20.80;;
66089;SDS011;53113;45.602;11.904;2023-02-01T08:46:04;30.70;;;19.50;;
66089;SDS011;53113;45.602;11.904;2023-02-01T08:48:30;35.40;;;21.20;;
66089;SDS011;53113;45.602;11.904;2023-02-01T08:50:56;32.90;;;19.80;;
66089;SDS011;53113;45.602;11.904;2023-02-01T08:53:22;33.00;;;21.30;;
66089;SDS011;53113;45.602;11.904;2023-02-01T08:55:48;34.50;;;22.10;;
66089;SDS011;53113;45.602;11.904;2023-02-01T08:58:14;30.30;;;19.50;;
66089;SDS011;53113;45.602;11.904;2023-02-01T09:00:42;30.00;;;18.90;;
66089;SDS011;53113;45.602;11.904;2023-02-01T09:03:10;32.50;;;19.20;;
66089;SDS011;53113;45.602;11.904;2023-02-01T09:05:37;31.40;;;20.50;;
66089;SDS011;53113;45.602;11.904;2023-02-01T09:08:04;32.30;;;20.40;;
66089;SDS011;53113;45.602;11.904;2023-02-01T09:10:30;31.70;;;21.30;;
66089;SDS011;53113;45.602;11.904;2023-02-01T09:12:56;33.00;;;21.00;;
66089;SDS011;53113;45.602;11.904;2023-02-01T09:15:22;29.90;;;19.00;;
66089;SDS011;53113;45.602;11.904;2023-02-01T09:17:47;30.00;;;19.20;;
66089;SDS011;53113;45.602;11.904;2023-02-01T09:20:14;30.70;;;20.40;;
66089;SDS011;53113;45.602;11.904;2023-02-01T09:22:41;30.90;;;20.40;;
66089;SDS011;53113;45.602;11.904;2023-02-01T09:25:07;34.30;;;21.90;;
66089;SDS011;53113;45.602;11.904;2023-02-01T09:27:33;34.40;;;22.70;;
66089;SDS011;53113;45.602;11.904;2023-02-01T09:29:59;31.60;;;20.90;;
66089;SDS011;53113;45.602;11.904;2023-02-01T09:35:05;44.60;;;26.40;;
66089;SDS011;53113;45.602;11.904;2023-02-01T09:37:31;40.60;;;24.90;;
66089;SDS011;53113;45.602;11.904;2023-02-01T09:39:58;41.30;;;26.70;;
66089;SDS011;53113;45.602;11.904;2023-02-01T09:48:13;43.60;;;28.80;;
66089;SDS011;53113;45.602;11.904;2023-02-01T09:50:44;42.50;;;27.70;;
66089;SDS011;53113;45.602;11.904;2023-02-01T09:56:05;46.10;;;29.00;;
66089;SDS011;53113;45.602;11.904;2023-02-01T10:01:15;47.20;;;30.20;;
66089;SDS011;53113;45.602;11.904;2023-02-01T10:03:50;45.60;;;30.50;;
66089;SDS011;53113;45.602;11.904;2023-02-01T10:09:14;47.40;;;31.50;;
66089;SDS011;53113;45.602;11.904;2023-02-01T10:17:53;48.70;;;33.10;;
66089;SDS011;53113;45.602;11.904;2023-02-01T10:26:05;45.50;;;30.20;;
66089;SDS011;53113;45.602;11.904;2023-02-01T10:28:41;50.60;;;31.60;;
66089;SDS011;53113;45.602;11.904;2023-02-01T10:31:11;50.00;;;32.20;;
66089;SDS011;53113;45.602;11.904;2023-02-01T10:33:43;52.70;;;33.30;;
66089;SDS011;53113;45.602;11.904;2023-02-01T10:36:23;49.90;;;32.60;;
66089;SDS011;53113;45.602;11.904;2023-02-01T10:41:20;47.30;;;31.80;;
66089;SDS011;53113;45.602;11.904;2023-02-01T10:43:50;47.40;;;31.00;;
66089;SDS011;53113;45.602;11.904;2023-02-01T10:46:20;48.00;;;32.10;;
66089;SDS011;53113;45.602;11.904;2023-02-01T10:48:47;49.40;;;33.00;;
66089;SDS011;53113;45.602;11.904;2023-02-01T10:51:16;43.60;;;31.30;;
66089;SDS011;53113;45.602;11.904;2023-02-01T10:56:27;49.40;;;32.10;;
66089;SDS011;53113;45.602;11.904;2023-02-01T10:59:11;47.30;;;31.80;;
66089;SDS011;53113;45.602;11.904;2023-02-01T11:01:41;47.30;;;31.20;;
66089;SDS011;53113;45.602;11.904;2023-02-01T11:04:16;51.40;;;34.60;;
66089;SDS011;53113;45.602;11.904;2023-02-01T11:06:52;49.40;;;32.20;;
66089;SDS011;53113;45.602;11.904;2023-02-01T11:09:32;47.50;;;32.90;;
66089;SDS011;53113;45.602;11.904;2023-02-01T11:12:04;52.10;;;35.60;;
66089;SDS011;53113;45.602;11.904;2023-02-01T11:14:39;47.60;;;34.30;;
66089;SDS011;53113;45.602;11.904;2023-02-01T11:19:46;52.20;;;33.40;;
66089;SDS011;53113;45.602;11.904;2023-02-01T11:22:13;52.90;;;34.90;;
66089;SDS011;53113;45.602;11.904;2023-02-01T11:24:40;49.00;;;33.70;;
66089;SDS011;53113;45.602;11.904;2023-02-01T11:27:16;49.80;;;33.80;;
66089;SDS011;53113;45.602;11.904;2023-02-01T11:29:47;46.90;;;33.30;;
66089;SDS011;53113;45.602;11.904;2023-02-01T11:32:17;48.00;;;32.40;;
66089;SDS011;53113;45.602;11.904;2023-02-01T11:34:51;54.50;;;35.30;;
66089;SDS011;53113;45.602;11.904;2023-02-01T11:40:37;54.80;;;36.80;;
66089;SDS011;53113;45.602;11.904;2023-02-01T11:43:08;55.00;;;35.50;;
66089;SDS011;53113;45.602;11.904;2023-02-01T11:46:00;55.20;;;36.60;;
66089;SDS011;53113;45.602;11.904;2023-02-01T11:48:30;53.70;;;36.10;;
66089;SDS011;53113;45.602;11.904;2023-02-01T12:14:45;58.30;;;39.20;;
66089;SDS011;53113;45.602;11.904;2023-02-01T12:22:55;61.40;;;40.10;;
66089;SDS011;53113;45.602;11.904;2023-02-01T12:33:58;57.10;;;39.20;;
66089;SDS011;53113;45.602;11.904;2023-02-01T12:39:31;58.10;;;40.70;;
66089;SDS011;53113;45.602;11.904;2023-02-01T12:42:26;55.80;;;38.40;;
66089;SDS011;53113;45.602;11.904;2023-02-01T12:45:06;54.10;;;38.60;;
66089;SDS011;53113;45.602;11.904;2023-02-01T12:51:13;54.10;;;38.80;;
66089;SDS011;53113;45.602;11.904;2023-02-01T12:56:23;54.20;;;38.60;;
66089;SDS011;53113;45.602;11.904;2023-02-01T12:58:55;56.30;;;38.90;;
66089;SDS011;53113;45.602;11.904;2023-02-01T13:01:42;53.60;;;38.60;;
66089;SDS011;53113;45.602;11.904;2023-02-01T13:07:07;55.10;;;38.80;;
66089;SDS011;53113;45.602;11.904;2023-02-01T13:09:47;55.20;;;40.60;;
66089;SDS011;53113;45.602;11.904;2023-02-01T13:17:38;54.60;;;40.60;;
66089;SDS011;53113;45.602;11.904;2023-02-01T13:23:04;57.70;;;41.20;;
66089;SDS011;53113;45.602;11.904;2023-02-01T13:26:13;53.10;;;38.90;;
66089;SDS011;53113;45.602;11.904;2023-02-01T13:28:27;52.80;;;38.70;;
66089;SDS011;53113;45.602;11.904;2023-02-01T13:36:58;55.70;;;39.70;;
66089;SDS011;53113;45.602;11.904;2023-02-01T13:42:30;52.40;;;38.00;;
66089;SDS011;53113;45.602;11.904;2023-02-01T13:45:00;55.90;;;41.10;;
66089;SDS011;53113;45.602;11.904;2023-02-01T13:47:32;53.40;;;39.00;;
66089;SDS011;53113;45.602;11.904;2023-02-01T13:50:25;57.70;;;40.10;;
66089;SDS011;53113;45.602;11.904;2023-02-01T13:52:57;53.40;;;39.00;;
66089;SDS011;53113;45.602;11.904;2023-02-01T13:55:30;56.30;;;39.30;;
66089;SDS011;53113;45.602;11.904;2023-02-01T13:57:59;54.70;;;39.20;;
66089;SDS011;53113;45.602;11.904;2023-02-01T14:00:40;56.30;;;41.10;;
66089;SDS011;53113;45.602;11.904;2023-02-01T14:03:12;58.60;;;40.00;;
66089;SDS011;53113;45.602;11.904;2023-02-01T14:29:37;55.50;;;39.00;;
66089;SDS011;53113;45.602;11.904;2023-02-01T14:44:44;54.70;;;38.40;;
66089;SDS011;53113;45.602;11.904;2023-02-01T14:49:56;55.30;;;40.70;;
66089;SDS011;53113;45.602;11.904;2023-02-01T14:52:22;56.80;;;40.20;;
66089;SDS011;53113;45.602;11.904;2023-02-01T14:54:55;58.90;;;40.80;;
66089;SDS011;53113;45.602;11.904;2023-02-01T14:57:26;56.30;;;38.70;;
66089;SDS011;53113;45.602;11.904;2023-02-01T14:59:55;57.80;;;40.10;;
66089;SDS011;53113;45.602;11.904;2023-02-01T15:02:30;55.60;;;39.10;;
66089;SDS011;53113;45.602;11.904;2023-02-01T15:05:01;54.00;;;38.50;;
66089;SDS011;53113;45.602;11.904;2023-02-01T15:07:26;53.90;;;38.40;;
66089;SDS011;53113;45.602;11.904;2023-02-01T15:09:55;52.30;;;37.20;;
66089;SDS011;53113;45.602;11.904;2023-02-01T15:12:27;53.90;;;39.40;;
66089;SDS011;53113;45.602;11.904;2023-02-01T15:15:09;51.60;;;37.20;;
66089;SDS011;53113;45.602;11.904;2023-02-01T15:17:37;57.50;;;39.40;;
66089;SDS011;53113;45.602;11.904;2023-02-01T15:20:13;55.60;;;39.80;;
66089;SDS011;53113;45.602;11.904;2023-02-01T15:22:42;88.90;;;50.90;;
66089;SDS011;53113;45.602;11.904;2023-02-01T15:25:19;62.20;;;41.60;;
66089;SDS011;53113;45.602;11.904;2023-02-01T15:27:46;61.60;;;40.50;;
66089;SDS011;53113;45.602;11.904;2023-02-01T15:30:16;58.90;;;40.40;;
66089;SDS011;53113;45.602;11.904;2023-02-01T15:32:45;58.20;;;40.00;;
66089;SDS011;53113;45.602;11.904;2023-02-01T15:40:54;63.80;;;42.20;;
66089;SDS011;53113;45.602;11.904;2023-02-01T15:46:07;64.40;;;42.30;;
66089;SDS011;53113;45.602;11.904;2023-02-01T15:48:36;65.70;;;41.10;;
66089;SDS011;53113;45.602;11.904;2023-02-01T15:51:14;64.90;;;42.40;;
66089;SDS011;53113;45.602;11.904;2023-02-01T15:53:53;70.40;;;44.00;;
66089;SDS011;53113;45.602;11.904;2023-02-01T15:56:28;68.20;;;43.60;;
66089;SDS011;53113;45.602;11.904;2023-02-01T15:59:00;73.30;;;44.60;;
66089;SDS011;53113;45.602;11.904;2023-02-01T16:01:28;69.40;;;45.30;;
66089;SDS011;53113;45.602;11.904;2023-02-01T16:04:10;68.40;;;44.80;;
66089;SDS011;53113;45.602;11.904;2023-02-01T16:06:48;67.70;;;42.40;;
66089;SDS011;53113;45.602;11.904;2023-02-01T16:09:24;67.10;;;42.60;;
66089;SDS011;53113;45.602;11.904;2023-02-01T16:12:00;70.40;;;42.20;;
66089;SDS011;53113;45.602;11.904;2023-02-01T16:14:27;69.50;;;43.10;;
66089;SDS011;53113;45.602;11.904;2023-02-01T16:16:54;66.50;;;42.40;;
66089;SDS011;53113;45.602;11.904;2023-02-01T16:19:22;68.20;;;43.50;;
66089;SDS011;53113;45.602;11.904;2023-02-01T16:21:53;67.00;;;42.70;;
66089;SDS011;53113;45.602;11.904;2023-02-01T16:24:20;68.30;;;42.70;;
66089;SDS011;53113;45.602;11.904;2023-02-01T16:26:48;62.30;;;39.40;;
66089;SDS011;53113;45.602;11.904;2023-02-01T16:29:13;69.30;;;44.30;;
66089;SDS011;53113;45.602;11.904;2023-02-01T16:31:40;68.00;;;42.10;;
66089;SDS011;53113;45.602;11.904;2023-02-01T16:34:11;67.00;;;42.00;;
66089;SDS011;53113;45.602;11.904;2023-02-01T16:36:43;63.20;;;41.40;;
66089;SDS011;53113;45.602;11.904;2023-02-01T16:39:16;63.30;;;40.90;;
66089;SDS011;53113;45.602;11.904;2023-02-01T16:41:43;68.20;;;41.10;;
66089;SDS011;53113;45.602;11.904;2023-02-01T16:44:10;68.90;;;42.40;;
66089;SDS011;53113;45.602;11.904;2023-02-01T16:46:39;66.10;;;42.10;;
66089;SDS011;53113;45.602;11.904;2023-02-01T16:49:15;70.70;;;43.10;;
66089;SDS011;53113;45.602;11.904;2023-02-01T16:51:42;76.80;;;44.70;;
66089;SDS011;53113;45.602;11.904;2023-02-01T16:54:08;68.80;;;46.10;;
66089;SDS011;53113;45.602;11.904;2023-02-01T16:56:34;67.50;;;42.60;;
66089;SDS011;53113;45.602;11.904;2023-02-01T16:59:01;76.30;;;44.40;;
66089;SDS011;53113;45.602;11.904;2023-02-01T17:01:27;73.00;;;44.20;;
66089;SDS011;53113;45.602;11.904;2023-02-01T17:03:53;69.10;;;43.60;;
66089;SDS011;53113;45.602;11.904;2023-02-01T17:06:19;78.40;;;45.40;;
66089;SDS011;53113;45.602;11.904;2023-02-01T17:11:15;71.50;;;42.20;;
66089;SDS011;53113;45.602;11.904;2023-02-01T17:13:41;72.60;;;43.10;;
66089;SDS011;53113;45.602;11.904;2023-02-01T17:16:26;71.60;;;44.60;;
66089;SDS011;53113;45.602;11.904;2023-02-01T17:19:04;70.10;;;40.10;;
66089;SDS011;53113;45.602;11.904;2023-02-01T17:21:38;69.80;;;41.50;;
66089;SDS011;53113;45.602;11.904;2023-02-01T17:24:14;76.80;;;43.00;;
66089;SDS011;53113;45.602;11.904;2023-02-01T17:26:42;70.90;;;42.70;;
66089;SDS011;53113;45.602;11.904;2023-02-01T17:29:08;82.70;;;48.00;;
66089;SDS011;53113;45.602;11.904;2023-02-01T17:31:36;72.40;;;44.90;;
66089;SDS011;53113;45.602;11.904;2023-02-01T17:34:05;73.50;;;45.00;;